sensor_id;sensor_type;location;lat;lon;timestamp;P1;durP1;ratioP1;P2;durP2;ratioP2
23015;SDS011;11674;52.428;13.584;2023-10-31T00:01:04;14.55;;;3.78;;
23015;SDS011;11674;52.428;13.584;2023-10-31T00:06:11;11.20;;;3.97;;
23015;SDS011;11674;52.428;13.584;2023-10-31T00:11:21;7.13;;;3.95;;
23015;SDS011;11674;52.428;13.584;2023-10-31T00:16:30;6.25;;;3.33;;
23015;SDS011;11674;52.428;13.584;2023-10-31T00:21:37;8.98;;;3.90;;
23015;SDS011;11674;52.428;13.584;2023-10-31T00:26:44;7.10;;;3.47;;
23015;SDS011;11674;52.428;13.584;2023-10-31T00:31:51;9.07;;;4.05;;
23015;SDS011;11674;52.428;13.584;2023-10-31T00:36:58;8.60;;;3.70;;
23015;SDS011;11674;52.428;13.584;2023-10-31T00:42:05;9.40;;;3.95;;
23015;SDS011;11674;52.428;13.584;2023-10-31T00:47:12;6.28;;;3.90;;
23015;SDS011;11674;52.428;13.584;2023-10-31T00:52:19;10.32;;;4.35;;
23015;SDS011;11674;52.428;13.584;2023-10-31T00:57:26;9.32;;;4.07;;
23015;SDS011;11674;52.428;13.584;2023-10-31T01:02:33;8.27;;;4.65;;
23015;SDS011;11674;52.428;13.584;2023-10-31T01:07:40;10.40;;;4.03;;
23015;SDS011;11674;52.428;13.584;2023-10-31T01:12:47;9.35;;;4.40;;
23015;SDS011;11674;52.428;13.584;2023-10-31T01:17:54;7.78;;;4.60;;
23015;SDS011;11674;52.428;13.584;2023-10-31T01:23:08;12.70;;;4.97;;
23015;SDS011;11674;52.428;13.584;2023-10-31T01:28:17;13.52;;;4.70;;
23015;SDS011;11674;52.428;13.584;2023-10-31T01:33:27;18.73;;;10.02;;
23015;SDS011;11674;52.428;13.584;2023-10-31T01:38:34;10.00;;;4.60;;
23015;SDS011;11674;52.428;13.584;2023-10-31T01:43:41;10.10;;;4.63;;
23015;SDS011;11674;52.428;13.584;2023-10-31T01:48:48;11.52;;;4.65;;
23015;SDS011;11674;52.428;13.584;2023-10-31T01:53:57;9.07;;;4.00;;
23015;SDS011;11674;52.428;13.584;2023-10-31T01:59:04;12.45;;;5.10;;
23015;SDS011;11674;52.428;13.584;2023-10-31T02:04:11;11.38;;;4.47;;
23015;SDS011;11674;52.428;13.584;2023-10-31T02:09:19;10.82;;;4.70;;
23015;SDS011;11674;52.428;13.584;2023-10-31T02:14:26;12.05;;;5.55;;
23015;SDS011;11674;52.428;13.584;2023-10-31T02:19:33;12.20;;;5.22;;
23015;SDS011;11674;52.428;13.584;2023-10-31T02:24:40;13.80;;;5.35;;
23015;SDS011;11674;52.428;13.584;2023-10-31T02:29:47;10.70;;;5.43;;
23015;SDS011;11674;52.428;13.584;2023-10-31T02:34:54;8.20;;;5.25;;
23015;SDS011;11674;52.428;13.584;2023-10-31T02:40:01;9.00;;;5.15;;
23015;SDS011;11674;52.428;13.584;2023-10-31T02:45:10;11.85;;;5.70;;
23015;SDS011;11674;52.428;13.584;2023-10-31T02:50:19;7.22;;;5.22;;
23015;SDS011;11674;52.428;13.584;2023-10-31T02:55:29;8.20;;;5.00;;
23015;SDS011;11674;52.428;13.584;2023-10-31T03:00:35;9.65;;;4.78;;
23015;SDS011;11674;52.428;13.584;2023-10-31T03:05:42;12.30;;;4.93;;
23015;SDS011;11674;52.428;13.584;2023-10-31T03:10:50;12.88;;;5.30;;
23015;SDS011;11674;52.428;13.584;2023-10-31T03:15:56;9.35;;;4.88;;
23015;SDS011;11674;52.428;13.584;2023-10-31T03:21:03;10.60;;;5.75;;
23015;SDS011;11674;52.428;13.584;2023-10-31T03:26:10;10.07;;;5.93;;
23015;SDS011;11674;52.428;13.584;2023-10-31T03:31:18;8.43;;;5.80;;
23015;SDS011;11674;52.428;13.584;2023-10-31T03:36:24;10.20;;;6.07;;
23015;SDS011;11674;52.428;13.584;2023-10-31T03:41:31;14.15;;;7.63;;
23015;SDS011;11674;52.428;13.584;2023-10-31T03:46:38;16.33;;;6.53;;
23015;SDS011;11674;52.428;13.584;2023-10-31T03:51:46;11.70;;;6.82;;
23015;SDS011;11674;52.428;13.584;2023-10-31T03:56:52;10.18;;;6.72;;
23015;SDS011;11674;52.428;13.584;2023-10-31T04:01:59;15.30;;;7.88;;
23015;SDS011;11674;52.428;13.584;2023-10-31T04:07:06;12.48;;;7.35;;
23015;SDS011;11674;52.428;13.584;2023-10-31T04:12:13;11.60;;;6.97;;
23015;SDS011;11674;52.428;13.584;2023-10-31T04:17:21;12.40;;;6.68;;
23015;SDS011;11674;52.428;13.584;2023-10-31T04:22:30;16.02;;;7.20;;
23015;SDS011;11674;52.428;13.584;2023-10-31T04:27:43;24.63;;;7.90;;
23015;SDS011;11674;52.428;13.584;2023-10-31T04:32:50;14.45;;;8.00;;
23015;SDS011;11674;52.428;13.584;2023-10-31T04:37:56;14.90;;;7.95;;
23015;SDS011;11674;52.428;13.584;2023-10-31T04:43:04;12.65;;;7.88;;
23015;SDS011;11674;52.428;13.584;2023-10-31T04:48:10;16.90;;;8.35;;
23015;SDS011;11674;52.428;13.584;2023-10-31T04:53:17;14.00;;;7.28;;
23015;SDS011;11674;52.428;13.584;2023-10-31T04:58:24;15.77;;;8.55;;
23015;SDS011;11674;52.428;13.584;2023-10-31T05:03:31;13.35;;;8.35;;
23015;SDS011;11674;52.428;13.584;2023-10-31T05:08:38;12.32;;;8.02;;
23015;SDS011;11674;52.428;13.584;2023-10-31T05:13:46;16.20;;;8.85;;
23015;SDS011;11674;52.428;13.584;2023-10-31T05:18:53;22.38;;;9.10;;
23015;SDS011;11674;52.428;13.584;2023-10-31T05:24:00;14.52;;;8.75;;
23015;SDS011;11674;52.428;13.584;2023-10-31T05:29:07;13.23;;;8.27;;
23015;SDS011;11674;52.428;13.584;2023-10-31T05:34:16;13.98;;;8.40;;
23015;SDS011;11674;52.428;13.584;2023-10-31T05:39:23;15.27;;;8.68;;
23015;SDS011;11674;52.428;13.584;2023-10-31T05:44:29;16.33;;;8.60;;
23015;SDS011;11674;52.428;13.584;2023-10-31T05:49:37;14.13;;;7.78;;
23015;SDS011;11674;52.428;13.584;2023-10-31T05:54:43;16.90;;;9.20;;
23015;SDS011;11674;52.428;13.584;2023-10-31T05:59:50;9.90;;;7.60;;
23015;SDS011;11674;52.428;13.584;2023-10-31T06:04:58;16.15;;;6.13;;
23015;SDS011;11674;52.428;13.584;2023-10-31T06:10:05;9.25;;;5.88;;
23015;SDS011;11674;52.428;13.584;2023-10-31T06:15:13;8.70;;;5.90;;
23015;SDS011;11674;52.428;13.584;2023-10-31T06:20:20;9.00;;;5.40;;
23015;SDS011;11674;52.428;13.584;2023-10-31T06:25:27;8.25;;;5.50;;
23015;SDS011;11674;52.428;13.584;2023-10-31T06:30:33;9.85;;;5.50;;
23015;SDS011;11674;52.428;13.584;2023-10-31T06:35:40;12.27;;;5.90;;
23015;SDS011;11674;52.428;13.584;2023-10-31T06:40:48;10.20;;;5.95;;
23015;SDS011;11674;52.428;13.584;2023-10-31T06:45:55;7.93;;;5.55;;
23015;SDS011;11674;52.428;13.584;2023-10-31T06:51:02;12.35;;;6.55;;
23015;SDS011;11674;52.428;13.584;2023-10-31T06:56:09;8.90;;;5.53;;
23015;SDS011;11674;52.428;13.584;2023-10-31T07:01:16;7.90;;;5.10;;
23015;SDS011;11674;52.428;13.584;2023-10-31T07:06:23;6.38;;;4.53;;
23015;SDS011;11674;52.428;13.584;2023-10-31T07:11:30;7.53;;;4.38;;
23015;SDS011;11674;52.428;13.584;2023-10-31T07:16:37;6.38;;;4.40;;
23015;SDS011;11674;52.428;13.584;2023-10-31T07:21:44;4.75;;;3.60;;
23015;SDS011;11674;52.428;13.584;2023-10-31T07:26:51;8.27;;;3.55;;
23015;SDS011;11674;52.428;13.584;2023-10-31T07:31:58;6.93;;;3.60;;
23015;SDS011;11674;52.428;13.584;2023-10-31T07:37:05;6.82;;;3.33;;
23015;SDS011;11674;52.428;13.584;2023-10-31T07:42:12;3.78;;;2.40;;
23015;SDS011;11674;52.428;13.584;2023-10-31T07:47:19;5.47;;;2.08;;
23015;SDS011;11674;52.428;13.584;2023-10-31T07:52:26;2.30;;;1.77;;
23015;SDS011;11674;52.428;13.584;2023-10-31T07:57:33;1.77;;;1.35;;
23015;SDS011;11674;52.428;13.584;2023-10-31T08:02:42;5.78;;;1.00;;
23015;SDS011;11674;52.428;13.584;2023-10-31T08:07:50;2.67;;;1.55;;
23015;SDS011;11674;52.428;13.584;2023-10-31T08:12:57;3.20;;;1.45;;
23015;SDS011;11674;52.428;13.584;2023-10-31T08:18:04;1.98;;;1.42;;
23015;SDS011;11674;52.428;13.584;2023-10-31T08:23:11;1.30;;;1.20;;
23015;SDS011;11674;52.428;13.584;2023-10-31T08:28:18;2.90;;;1.40;;
23015;SDS011;11674;52.428;13.584;2023-10-31T08:33:25;6.07;;;1.40;;
23015;SDS011;11674;52.428;13.584;2023-10-31T08:38:32;1.25;;;1.00;;
23015;SDS011;11674;52.428;13.584;2023-10-31T08:43:42;1.80;;;0.90;;
23015;SDS011;11674;52.428;13.584;2023-10-31T08:48:58;0.73;;;0.73;;
23015;SDS011;11674;52.428;13.584;2023-10-31T08:54:06;0.88;;;0.73;;
23015;SDS011;11674;52.428;13.584;2023-10-31T08:59:13;0.95;;;0.75;;
23015;SDS011;11674;52.428;13.584;2023-10-31T09:04:23;2.58;;;0.80;;
23015;SDS011;11674;52.428;13.584;2023-10-31T09:09:32;0.60;;;0.60;;
23015;SDS011;11674;52.428;13.584;2023-10-31T09:14:42;0.80;;;0.70;;
23015;SDS011;11674;52.428;13.584;2023-10-31T09:19:49;2.90;;;0.60;;
23015;SDS011;11674;52.428;13.584;2023-10-31T09:24:56;0.73;;;0.65;;
23015;SDS011;11674;52.428;13.584;2023-10-31T09:30:03;3.60;;;0.80;;
23015;SDS011;11674;52.428;13.584;2023-10-31T09:35:11;1.77;;;0.70;;
23015;SDS011;11674;52.428;13.584;2023-10-31T09:40:18;1.35;;;0.80;;
23015;SDS011;11674;52.428;13.584;2023-10-31T09:45:25;2.92;;;0.75;;
23015;SDS011;11674;52.428;13.584;2023-10-31T09:50:35;1.17;;;0.90;;
23015;SDS011;11674;52.428;13.584;2023-10-31T09:55:43;0.80;;;0.80;;
23015;SDS011;11674;52.428;13.584;2023-10-31T10:00:50;2.33;;;1.00;;
23015;SDS011;11674;52.428;13.584;2023-10-31T10:05:57;1.80;;;1.13;;
23015;SDS011;11674;52.428;13.584;2023-10-31T10:11:04;1.70;;;1.05;;
23015;SDS011;11674;52.428;13.584;2023-10-31T10:16:12;2.88;;;0.80;;
23015;SDS011;11674;52.428;13.584;2023-10-31T10:21:19;1.40;;;0.90;;
23015;SDS011;11674;52.428;13.584;2023-10-31T10:26:26;1.27;;;0.93;;
23015;SDS011;11674;52.428;13.584;2023-10-31T10:31:33;1.00;;;0.90;;
23015;SDS011;11674;52.428;13.584;2023-10-31T10:36:40;1.48;;;1.00;;
23015;SDS011;11674;52.428;13.584;2023-10-31T10:41:50;1.25;;;1.02;;
23015;SDS011;11674;52.428;13.584;2023-10-31T10:47:09;1.55;;;1.13;;
23015;SDS011;11674;52.428;13.584;2023-10-31T10:52:22;1.38;;;1.00;;
23015;SDS011;11674;52.428;13.584;2023-10-31T11:03:03;2.97;;;1.10;;
23015;SDS011;11674;52.428;13.584;2023-10-31T11:08:11;3.58;;;1.30;;
23015;SDS011;11674;52.428;13.584;2023-10-31T11:13:19;1.50;;;1.10;;
23015;SDS011;11674;52.428;13.584;2023-10-31T11:18:27;2.88;;;1.25;;
23015;SDS011;11674;52.428;13.584;2023-10-31T11:23:34;2.08;;;1.20;;
23015;SDS011;11674;52.428;13.584;2023-10-31T11:28:42;1.10;;;1.00;;
23015;SDS011;11674;52.428;13.584;2023-10-31T11:33:49;2.55;;;1.27;;
23015;SDS011;11674;52.428;13.584;2023-10-31T11:39:09;1.02;;;0.93;;
23015;SDS011;11674;52.428;13.584;2023-10-31T11:44:25;2.08;;;1.20;;
23015;SDS011;11674;52.428;13.584;2023-10-31T11:49:45;1.35;;;0.95;;
23015;SDS011;11674;52.428;13.584;2023-10-31T11:54:53;2.00;;;0.90;;
23015;SDS011;11674;52.428;13.584;2023-10-31T12:00:00;5.65;;;0.85;;
23015;SDS011;11674;52.428;13.584;2023-10-31T12:05:12;1.13;;;0.80;;
23015;SDS011;11674;52.428;13.584;2023-10-31T12:10:27;3.00;;;0.90;;
23015;SDS011;11674;52.428;13.584;2023-10-31T12:15:37;0.77;;;0.77;;
23015;SDS011;11674;52.428;13.584;2023-10-31T12:20:47;1.98;;;0.90;;
23015;SDS011;11674;52.428;13.584;2023-10-31T12:25:55;3.20;;;0.80;;
23015;SDS011;11674;52.428;13.584;2023-10-31T12:31:02;2.40;;;1.02;;
23015;SDS011;11674;52.428;13.584;2023-10-31T12:36:09;1.83;;;0.82;;
23015;SDS011;11674;52.428;13.584;2023-10-31T12:41:16;1.02;;;0.80;;
23015;SDS011;11674;52.428;13.584;2023-10-31T12:46:27;1.30;;;0.82;;
23015;SDS011;11674;52.428;13.584;2023-10-31T12:51:35;0.85;;;0.65;;
23015;SDS011;11674;52.428;13.584;2023-10-31T12:56:42;0.90;;;0.57;;
23015;SDS011;11674;52.428;13.584;2023-10-31T13:01:49;4.10;;;0.60;;
23015;SDS011;11674;52.428;13.584;2023-10-31T13:07:06;1.08;;;0.65;;
23015;SDS011;11674;52.428;13.584;2023-10-31T13:12:14;0.85;;;0.70;;
23015;SDS011;11674;52.428;13.584;2023-10-31T13:17:21;1.13;;;0.63;;
23015;SDS011;11674;52.428;13.584;2023-10-31T13:22:28;0.43;;;0.43;;
23015;SDS011;11674;52.428;13.584;2023-10-31T13:27:35;1.10;;;0.60;;
23015;SDS011;11674;52.428;13.584;2023-10-31T13:32:43;0.95;;;0.80;;
23015;SDS011;11674;52.428;13.584;2023-10-31T13:37:51;1.00;;;0.80;;
23015;SDS011;11674;52.428;13.584;2023-10-31T13:42:58;1.20;;;0.60;;
23015;SDS011;11674;52.428;13.584;2023-10-31T13:48:07;0.77;;;0.63;;
23015;SDS011;11674;52.428;13.584;2023-10-31T13:53:14;0.70;;;0.70;;
23015;SDS011;11674;52.428;13.584;2023-10-31T13:58:21;0.50;;;0.50;;
23015;SDS011;11674;52.428;13.584;2023-10-31T14:03:28;0.63;;;0.52;;
23015;SDS011;11674;52.428;13.584;2023-10-31T14:08:35;1.75;;;0.60;;
23015;SDS011;11674;52.428;13.584;2023-10-31T14:13:42;0.60;;;0.60;;
23015;SDS011;11674;52.428;13.584;2023-10-31T14:18:49;1.50;;;0.50;;
23015;SDS011;11674;52.428;13.584;2023-10-31T14:23:56;1.08;;;0.70;;
23015;SDS011;11674;52.428;13.584;2023-10-31T14:29:03;0.65;;;0.60;;
23015;SDS011;11674;52.428;13.584;2023-10-31T14:34:10;0.80;;;0.60;;
23015;SDS011;11674;52.428;13.584;2023-10-31T14:39:17;0.95;;;0.70;;
23015;SDS011;11674;52.428;13.584;2023-10-31T14:44:26;0.65;;;0.65;;
23015;SDS011;11674;52.428;13.584;2023-10-31T14:49:33;1.42;;;0.75;;
23015;SDS011;11674;52.428;13.584;2023-10-31T14:54:40;1.40;;;0.90;;
23015;SDS011;11674;52.428;13.584;2023-10-31T14:59:47;4.05;;;0.90;;
23015;SDS011;11674;52.428;13.584;2023-10-31T15:04:54;0.65;;;0.65;;
23015;SDS011;11674;52.428;13.584;2023-10-31T15:10:01;1.80;;;0.80;;
23015;SDS011;11674;52.428;13.584;2023-10-31T15:15:08;1.52;;;0.90;;
23015;SDS011;11674;52.428;13.584;2023-10-31T15:20:15;1.10;;;1.00;;
23015;SDS011;11674;52.428;13.584;2023-10-31T15:25:22;0.88;;;0.80;;
23015;SDS011;11674;52.428;13.584;2023-10-31T15:30:29;0.95;;;0.73;;
23015;SDS011;11674;52.428;13.584;2023-10-31T15:35:36;1.92;;;1.00;;
23015;SDS011;11674;52.428;13.584;2023-10-31T15:40:43;1.15;;;0.93;;
23015;SDS011;11674;52.428;13.584;2023-10-31T15:45:50;2.10;;;1.50;;
23015;SDS011;11674;52.428;13.584;2023-10-31T15:50:57;1.60;;;1.40;;
23015;SDS011;11674;52.428;13.584;2023-10-31T15:56:04;2.05;;;1.50;;
23015;SDS011;11674;52.428;13.584;2023-10-31T16:01:11;3.92;;;2.60;;
23015;SDS011;11674;52.428;13.584;2023-10-31T16:06:18;5.15;;;3.03;;
23015;SDS011;11674;52.428;13.584;2023-10-31T16:11:25;2.70;;;1.80;;
23015;SDS011;11674;52.428;13.584;2023-10-31T16:16:32;4.15;;;2.30;;
23015;SDS011;11674;52.428;13.584;2023-10-31T16:21:39;4.53;;;2.33;;
23015;SDS011;11674;52.428;13.584;2023-10-31T16:26:46;4.00;;;2.30;;
23015;SDS011;11674;52.428;13.584;2023-10-31T16:31:53;3.50;;;2.42;;
23015;SDS011;11674;52.428;13.584;2023-10-31T16:37:00;5.07;;;2.22;;
23015;SDS011;11674;52.428;13.584;2023-10-31T16:42:07;4.45;;;3.03;;
23015;SDS011;11674;52.428;13.584;2023-10-31T16:47:14;3.05;;;2.33;;
23015;SDS011;11674;52.428;13.584;2023-10-31T16:52:21;5.43;;;2.58;;
23015;SDS011;11674;52.428;13.584;2023-10-31T16:57:28;4.35;;;2.05;;
23015;SDS011;11674;52.428;13.584;2023-10-31T17:02:35;5.10;;;2.42;;
23015;SDS011;11674;52.428;13.584;2023-10-31T17:07:42;3.22;;;2.63;;
23015;SDS011;11674;52.428;13.584;2023-10-31T17:12:49;5.47;;;3.08;;
23015;SDS011;11674;52.428;13.584;2023-10-31T17:17:56;7.60;;;4.85;;
23015;SDS011;11674;52.428;13.584;2023-10-31T17:23:03;7.63;;;4.50;;
23015;SDS011;11674;52.428;13.584;2023-10-31T17:28:10;7.10;;;4.63;;
23015;SDS011;11674;52.428;13.584;2023-10-31T17:33:17;7.45;;;3.45;;
23015;SDS011;11674;52.428;13.584;2023-10-31T17:38:24;3.78;;;2.97;;
23015;SDS011;11674;52.428;13.584;2023-10-31T17:43:31;4.60;;;3.30;;
23015;SDS011;11674;52.428;13.584;2023-10-31T17:48:38;4.05;;;3.15;;
23015;SDS011;11674;52.428;13.584;2023-10-31T17:53:45;8.27;;;3.35;;
23015;SDS011;11674;52.428;13.584;2023-10-31T17:58:52;7.68;;;3.60;;
23015;SDS011;11674;52.428;13.584;2023-10-31T18:03:59;5.82;;;3.65;;
23015;SDS011;11674;52.428;13.584;2023-10-31T18:09:06;6.47;;;4.18;;
23015;SDS011;11674;52.428;13.584;2023-10-31T18:14:13;10.07;;;4.55;;
23015;SDS011;11674;52.428;13.584;2023-10-31T18:19:20;9.18;;;5.30;;
23015;SDS011;11674;52.428;13.584;2023-10-31T18:24:27;5.93;;;3.70;;
23015;SDS011;11674;52.428;13.584;2023-10-31T18:29:34;7.07;;;3.60;;
23015;SDS011;11674;52.428;13.584;2023-10-31T18:34:41;5.25;;;3.90;;
23015;SDS011;11674;52.428;13.584;2023-10-31T18:39:48;8.13;;;3.40;;
23015;SDS011;11674;52.428;13.584;2023-10-31T18:44:55;4.20;;;3.38;;
23015;SDS011;11674;52.428;13.584;2023-10-31T18:50:02;4.50;;;3.13;;
23015;SDS011;11674;52.428;13.584;2023-10-31T18:55:09;4.85;;;3.10;;
23015;SDS011;11674;52.428;13.584;2023-10-31T19:00:23;5.25;;;3.22;;
23015;SDS011;11674;52.428;13.584;2023-10-31T19:05:30;4.47;;;3.17;;
23015;SDS011;11674;52.428;13.584;2023-10-31T19:10:37;7.63;;;3.28;;
23015;SDS011;11674;52.428;13.584;2023-10-31T19:15:44;9.68;;;3.42;;
23015;SDS011;11674;52.428;13.584;2023-10-31T19:20:52;4.13;;;3.22;;
23015;SDS011;11674;52.428;13.584;2023-10-31T19:25:59;4.80;;;2.70;;
23015;SDS011;11674;52.428;13.584;2023-10-31T19:31:06;3.85;;;2.60;;
23015;SDS011;11674;52.428;13.584;2023-10-31T19:36:13;3.00;;;1.80;;
23015;SDS011;11674;52.428;13.584;2023-10-31T19:41:20;2.58;;;1.30;;
23015;SDS011;11674;52.428;13.584;2023-10-31T19:46:27;6.38;;;1.20;;
23015;SDS011;11674;52.428;13.584;2023-10-31T19:51:34;1.00;;;0.90;;
23015;SDS011;11674;52.428;13.584;2023-10-31T19:56:41;0.88;;;0.80;;
23015;SDS011;11674;52.428;13.584;2023-10-31T20:01:48;2.15;;;0.60;;
23015;SDS011;11674;52.428;13.584;2023-10-31T20:06:55;2.55;;;1.17;;
23015;SDS011;11674;52.428;13.584;2023-10-31T20:12:02;3.80;;;0.80;;
23015;SDS011;11674;52.428;13.584;2023-10-31T20:17:09;3.83;;;1.67;;
23015;SDS011;11674;52.428;13.584;2023-10-31T20:22:16;3.17;;;1.35;;
23015;SDS011;11674;52.428;13.584;2023-10-31T20:27:23;0.60;;;0.60;;
23015;SDS011;11674;52.428;13.584;2023-10-31T20:32:30;2.53;;;0.73;;
23015;SDS011;11674;52.428;13.584;2023-10-31T20:37:37;1.15;;;0.60;;
23015;SDS011;11674;52.428;13.584;2023-10-31T20:42:44;4.70;;;2.15;;
23015;SDS011;11674;52.428;13.584;2023-10-31T20:47:54;2.67;;;0.90;;
23015;SDS011;11674;52.428;13.584;2023-10-31T20:53:01;2.67;;;0.50;;
23015;SDS011;11674;52.428;13.584;2023-10-31T20:58:08;0.68;;;0.55;;
23015;SDS011;11674;52.428;13.584;2023-10-31T21:03:15;2.67;;;0.70;;
23015;SDS011;11674;52.428;13.584;2023-10-31T21:08:22;2.22;;;0.65;;
23015;SDS011;11674;52.428;13.584;2023-10-31T21:13:38;2.03;;;0.55;;
23015;SDS011;11674;52.428;13.584;2023-10-31T21:18:45;0.88;;;0.70;;
23015;SDS011;11674;52.428;13.584;2023-10-31T21:23:52;2.58;;;0.68;;
23015;SDS011;11674;52.428;13.584;2023-10-31T21:29:01;1.65;;;0.90;;
23015;SDS011;11674;52.428;13.584;2023-10-31T21:34:08;0.73;;;0.60;;
23015;SDS011;11674;52.428;13.584;2023-10-31T21:39:15;0.93;;;0.70;;
23015;SDS011;11674;52.428;13.584;2023-10-31T21:44:22;2.30;;;0.80;;
23015;SDS011;11674;52.428;13.584;2023-10-31T21:49:29;3.72;;;0.70;;
23015;SDS011;11674;52.428;13.584;2023-10-31T21:54:41;1.10;;;0.60;;
23015;SDS011;11674;52.428;13.584;2023-10-31T21:59:48;2.92;;;0.73;;
23015;SDS011;11674;52.428;13.584;2023-10-31T22:04:55;1.58;;;0.70;;
23015;SDS011;11674;52.428;13.584;2023-10-31T22:10:02;1.85;;;0.90;;
23015;SDS011;11674;52.428;13.584;2023-10-31T22:15:12;2.30;;;0.73;;
23015;SDS011;11674;52.428;13.584;2023-10-31T22:20:22;1.58;;;0.80;;
23015;SDS011;11674;52.428;13.584;2023-10-31T22:25:28;2.22;;;0.90;;
23015;SDS011;11674;52.428;13.584;2023-10-31T22:30:35;6.20;;;1.00;;
23015;SDS011;11674;52.428;13.584;2023-10-31T22:35:42;4.20;;;0.90;;
23015;SDS011;11674;52.428;13.584;2023-10-31T22:40:49;1.98;;;1.02;;
23015;SDS011;11674;52.428;13.584;2023-10-31T22:45:58;2.33;;;0.75;;
23015;SDS011;11674;52.428;13.584;2023-10-31T22:51:05;3.05;;;1.10;;
23015;SDS011;11674;52.428;13.584;2023-10-31T22:56:12;2.05;;;0.70;;
23015;SDS011;11674;52.428;13.584;2023-10-31T23:01:19;1.60;;;0.60;;
23015;SDS011;11674;52.428;13.584;2023-10-31T23:06:29;2.47;;;0.70;;
23015;SDS011;11674;52.428;13.584;2023-10-31T23:11:36;2.88;;;1.52;;
23015;SDS011;11674;52.428;13.584;2023-10-31T23:16:47;0.60;;;0.52;;
23015;SDS011;11674;52.428;13.584;2023-10-31T23:22:02;2.80;;;0.70;;
23015;SDS011;11674;52.428;13.584;2023-10-31T23:27:09;2.42;;;0.70;;
23015;SDS011;11674;52.428;13.584;2023-10-31T23:32:16;2.08;;;0.80;;
23015;SDS011;11674;52.428;13.584;2023-10-31T23:37:26;1.75;;;0.70;;
23015;SDS011;11674;52.428;13.584;2023-10-31T23:42:33;2.60;;;1.25;;
23015;SDS011;11674;52.428;13.584;2023-10-31T23:47:43;2.38;;;1.30;;
23015;SDS011;11674;52.428;13.584;2023-10-31T23:52:51;1.48;;;0.70;;
23015;SDS011;11674;52.428;13.584;2023-10-31T23:57:58;1.75;;;0.68;;
